sensor_id;sensor_type;location;lat;lon;timestamp;P1;durP1;ratioP1;P2;durP2;ratioP2
66429;SDS011;53242;51.694;10.006;2023-09-19T00:00:22;1.60;;;0.80;;
66429;SDS011;53242;51.694;10.006;2023-09-19T00:03:06;0.70;;;0.55;;
66429;SDS011;53242;51.694;10.006;2023-09-19T00:05:28;1.20;;;0.50;;
66429;SDS011;53242;51.694;10.006;2023-09-19T00:07:52;1.88;;;0.52;;
66429;SDS011;53242;51.694;10.006;2023-09-19T00:10:24;2.35;;;0.80;;
66429;SDS011;53242;51.694;10.006;2023-09-19T00:12:48;0.88;;;0.52;;
66429;SDS011;53242;51.694;10.006;2023-09-19T00:15:11;1.63;;;0.50;;
66429;SDS011;53242;51.694;10.006;2023-09-19T00:17:33;2.65;;;0.85;;
66429;SDS011;53242;51.694;10.006;2023-09-19T00:19:56;1.63;;;0.50;;
66429;SDS011;53242;51.694;10.006;2023-09-19T00:22:19;3.00;;;0.60;;
66429;SDS011;53242;51.694;10.006;2023-09-19T00:24:42;3.15;;;0.63;;
66429;SDS011;53242;51.694;10.006;2023-09-19T00:27:04;1.60;;;0.50;;
66429;SDS011;53242;51.694;10.006;2023-09-19T00:29:27;0.70;;;0.57;;
66429;SDS011;53242;51.694;10.006;2023-09-19T00:31:51;2.25;;;0.80;;
66429;SDS011;53242;51.694;10.006;2023-09-19T00:34:13;3.97;;;0.80;;
66429;SDS011;53242;51.694;10.006;2023-09-19T00:36:37;2.33;;;0.70;;
66429;SDS011;53242;51.694;10.006;2023-09-19T00:39:02;1.55;;;0.77;;
66429;SDS011;53242;51.694;10.006;2023-09-19T00:41:27;2.47;;;0.70;;
66429;SDS011;53242;51.694;10.006;2023-09-19T00:43:52;2.00;;;0.80;;
66429;SDS011;53242;51.694;10.006;2023-09-19T00:46:18;2.72;;;0.65;;
66429;SDS011;53242;51.694;10.006;2023-09-19T00:48:41;1.95;;;0.70;;
66429;SDS011;53242;51.694;10.006;2023-09-19T00:51:05;2.58;;;0.70;;
66429;SDS011;53242;51.694;10.006;2023-09-19T00:53:28;2.13;;;0.68;;
66429;SDS011;53242;51.694;10.006;2023-09-19T00:55:52;1.48;;;0.60;;
66429;SDS011;53242;51.694;10.006;2023-09-19T00:58:16;1.75;;;0.70;;
66429;SDS011;53242;51.694;10.006;2023-09-19T01:00:40;3.47;;;0.82;;
66429;SDS011;53242;51.694;10.006;2023-09-19T01:03:02;1.30;;;0.73;;
66429;SDS011;53242;51.694;10.006;2023-09-19T01:05:25;2.10;;;1.10;;
66429;SDS011;53242;51.694;10.006;2023-09-19T01:07:47;3.28;;;0.70;;
66429;SDS011;53242;51.694;10.006;2023-09-19T01:10:12;1.67;;;0.90;;
66429;SDS011;53242;51.694;10.006;2023-09-19T01:12:48;5.13;;;1.10;;
66429;SDS011;53242;51.694;10.006;2023-09-19T01:20:35;2.60;;;1.00;;
66429;SDS011;53242;51.694;10.006;2023-09-19T01:23:06;2.25;;;0.93;;
66429;SDS011;53242;51.694;10.006;2023-09-19T01:25:42;1.52;;;1.00;;
66429;SDS011;53242;51.694;10.006;2023-09-19T01:28:30;2.47;;;1.10;;
66429;SDS011;53242;51.694;10.006;2023-09-19T01:30:58;2.25;;;1.10;;
66429;SDS011;53242;51.694;10.006;2023-09-19T01:33:25;2.08;;;1.00;;
66429;SDS011;53242;51.694;10.006;2023-09-19T01:35:48;2.00;;;0.88;;
66429;SDS011;53242;51.694;10.006;2023-09-19T01:38:11;2.17;;;0.85;;
66429;SDS011;53242;51.694;10.006;2023-09-19T01:40:33;2.25;;;1.20;;
66429;SDS011;53242;51.694;10.006;2023-09-19T01:43:09;2.60;;;1.10;;
66429;SDS011;53242;51.694;10.006;2023-09-19T01:50:59;2.83;;;0.88;;
66429;SDS011;53242;51.694;10.006;2023-09-19T01:53:26;1.73;;;0.95;;
66429;SDS011;53242;51.694;10.006;2023-09-19T01:55:52;5.25;;;1.00;;
66429;SDS011;53242;51.694;10.006;2023-09-19T01:58:18;1.80;;;1.10;;
66429;SDS011;53242;51.694;10.006;2023-09-19T02:00:44;3.25;;;1.13;;
66429;SDS011;53242;51.694;10.006;2023-09-19T02:03:10;2.10;;;1.00;;
66429;SDS011;53242;51.694;10.006;2023-09-19T02:05:34;2.58;;;1.23;;
66429;SDS011;53242;51.694;10.006;2023-09-19T02:07:56;2.58;;;1.02;;
66429;SDS011;53242;51.694;10.006;2023-09-19T02:12:43;1.95;;;1.00;;
66429;SDS011;53242;51.694;10.006;2023-09-19T02:15:05;2.03;;;0.82;;
66429;SDS011;53242;51.694;10.006;2023-09-19T02:17:29;3.38;;;1.10;;
66429;SDS011;53242;51.694;10.006;2023-09-19T02:19:53;4.45;;;1.27;;
66429;SDS011;53242;51.694;10.006;2023-09-19T02:22:18;1.98;;;0.90;;
66429;SDS011;53242;51.694;10.006;2023-09-19T02:24:40;1.85;;;1.10;;
66429;SDS011;53242;51.694;10.006;2023-09-19T02:27:02;2.67;;;1.00;;
66429;SDS011;53242;51.694;10.006;2023-09-19T02:29:27;3.13;;;1.10;;
66429;SDS011;53242;51.694;10.006;2023-09-19T02:31:51;5.00;;;1.63;;
66429;SDS011;53242;51.694;10.006;2023-09-19T02:34:13;2.60;;;1.30;;
66429;SDS011;53242;51.694;10.006;2023-09-19T02:36:39;6.28;;;1.27;;
66429;SDS011;53242;51.694;10.006;2023-09-19T02:39:01;5.30;;;1.30;;
66429;SDS011;53242;51.694;10.006;2023-09-19T02:41:25;4.00;;;1.20;;
66429;SDS011;53242;51.694;10.006;2023-09-19T02:43:47;4.50;;;1.50;;
66429;SDS011;53242;51.694;10.006;2023-09-19T02:46:10;3.10;;;1.25;;
66429;SDS011;53242;51.694;10.006;2023-09-19T02:48:33;2.90;;;1.40;;
66429;SDS011;53242;51.694;10.006;2023-09-19T02:50:58;2.50;;;1.17;;
66429;SDS011;53242;51.694;10.006;2023-09-19T02:53:20;3.50;;;1.10;;
66429;SDS011;53242;51.694;10.006;2023-09-19T02:55:42;2.70;;;1.23;;
66429;SDS011;53242;51.694;10.006;2023-09-19T02:58:05;2.95;;;1.40;;
66429;SDS011;53242;51.694;10.006;2023-09-19T03:00:29;3.13;;;1.15;;
66429;SDS011;53242;51.694;10.006;2023-09-19T03:02:55;2.15;;;1.27;;
66429;SDS011;53242;51.694;10.006;2023-09-19T03:05:18;4.60;;;1.40;;
66429;SDS011;53242;51.694;10.006;2023-09-19T03:07:41;4.13;;;1.42;;
66429;SDS011;53242;51.694;10.006;2023-09-19T03:10:06;4.88;;;1.42;;
66429;SDS011;53242;51.694;10.006;2023-09-19T03:12:29;3.60;;;1.58;;
66429;SDS011;53242;51.694;10.006;2023-09-19T03:14:53;4.53;;;1.60;;
66429;SDS011;53242;51.694;10.006;2023-09-19T03:17:15;5.35;;;1.67;;
66429;SDS011;53242;51.694;10.006;2023-09-19T03:19:38;5.78;;;1.65;;
66429;SDS011;53242;51.694;10.006;2023-09-19T03:22:01;5.57;;;1.80;;
66429;SDS011;53242;51.694;10.006;2023-09-19T03:24:26;4.93;;;1.73;;
66429;SDS011;53242;51.694;10.006;2023-09-19T03:26:49;5.28;;;1.63;;
66429;SDS011;53242;51.694;10.006;2023-09-19T03:29:12;5.25;;;1.77;;
66429;SDS011;53242;51.694;10.006;2023-09-19T03:31:37;6.85;;;2.05;;
66429;SDS011;53242;51.694;10.006;2023-09-19T03:34:00;4.18;;;1.88;;
66429;SDS011;53242;51.694;10.006;2023-09-19T03:36:22;5.03;;;2.10;;
66429;SDS011;53242;51.694;10.006;2023-09-19T03:38:45;6.68;;;2.70;;
66429;SDS011;53242;51.694;10.006;2023-09-19T03:41:07;4.20;;;1.92;;
66429;SDS011;53242;51.694;10.006;2023-09-19T03:43:32;5.88;;;2.30;;
66429;SDS011;53242;51.694;10.006;2023-09-19T03:45:55;5.38;;;2.17;;
66429;SDS011;53242;51.694;10.006;2023-09-19T03:48:18;7.00;;;2.00;;
66429;SDS011;53242;51.694;10.006;2023-09-19T03:50:42;7.13;;;1.92;;
66429;SDS011;53242;51.694;10.006;2023-09-19T03:53:06;3.15;;;1.55;;
66429;SDS011;53242;51.694;10.006;2023-09-19T03:55:29;3.63;;;1.77;;
66429;SDS011;53242;51.694;10.006;2023-09-19T03:57:52;5.78;;;2.00;;
66429;SDS011;53242;51.694;10.006;2023-09-19T04:00:15;5.70;;;1.98;;
66429;SDS011;53242;51.694;10.006;2023-09-19T04:02:40;6.13;;;1.83;;
66429;SDS011;53242;51.694;10.006;2023-09-19T04:05:03;5.88;;;1.92;;
66429;SDS011;53242;51.694;10.006;2023-09-19T04:07:25;4.95;;;2.15;;
66429;SDS011;53242;51.694;10.006;2023-09-19T04:09:51;6.40;;;2.00;;
66429;SDS011;53242;51.694;10.006;2023-09-19T04:12:15;4.63;;;1.98;;
66429;SDS011;53242;51.694;10.006;2023-09-19T04:14:39;5.68;;;2.05;;
66429;SDS011;53242;51.694;10.006;2023-09-19T04:17:01;4.68;;;2.05;;
66429;SDS011;53242;51.694;10.006;2023-09-19T04:19:24;4.97;;;2.00;;
66429;SDS011;53242;51.694;10.006;2023-09-19T04:21:46;6.47;;;2.38;;
66429;SDS011;53242;51.694;10.006;2023-09-19T04:24:09;6.85;;;2.10;;
66429;SDS011;53242;51.694;10.006;2023-09-19T04:26:31;8.68;;;2.80;;
66429;SDS011;53242;51.694;10.006;2023-09-19T04:28:54;5.28;;;2.08;;
66429;SDS011;53242;51.694;10.006;2023-09-19T04:31:18;10.68;;;2.40;;
66429;SDS011;53242;51.694;10.006;2023-09-19T04:33:41;6.22;;;2.70;;
66429;SDS011;53242;51.694;10.006;2023-09-19T04:36:05;8.20;;;2.40;;
66429;SDS011;53242;51.694;10.006;2023-09-19T04:38:29;7.70;;;2.53;;
66429;SDS011;53242;51.694;10.006;2023-09-19T04:40:56;5.78;;;2.10;;
66429;SDS011;53242;51.694;10.006;2023-09-19T04:43:20;6.13;;;2.03;;
66429;SDS011;53242;51.694;10.006;2023-09-19T04:45:42;4.10;;;1.85;;
66429;SDS011;53242;51.694;10.006;2023-09-19T04:48:05;6.10;;;2.22;;
66429;SDS011;53242;51.694;10.006;2023-09-19T04:50:30;5.60;;;1.90;;
66429;SDS011;53242;51.694;10.006;2023-09-19T04:52:53;4.45;;;2.10;;
66429;SDS011;53242;51.694;10.006;2023-09-19T04:55:16;5.68;;;2.25;;
66429;SDS011;53242;51.694;10.006;2023-09-19T04:57:39;4.57;;;1.90;;
66429;SDS011;53242;51.694;10.006;2023-09-19T05:00:02;4.28;;;2.03;;
66429;SDS011;53242;51.694;10.006;2023-09-19T05:02:34;3.75;;;2.10;;
66429;SDS011;53242;51.694;10.006;2023-09-19T05:04:56;4.22;;;2.03;;
66429;SDS011;53242;51.694;10.006;2023-09-19T05:07:22;4.90;;;2.17;;
66429;SDS011;53242;51.694;10.006;2023-09-19T05:09:46;5.38;;;2.28;;
66429;SDS011;53242;51.694;10.006;2023-09-19T05:12:08;5.15;;;2.10;;
66429;SDS011;53242;51.694;10.006;2023-09-19T05:14:32;7.22;;;2.15;;
66429;SDS011;53242;51.694;10.006;2023-09-19T05:16:55;5.13;;;2.00;;
66429;SDS011;53242;51.694;10.006;2023-09-19T05:19:17;7.05;;;2.17;;
66429;SDS011;53242;51.694;10.006;2023-09-19T05:21:40;3.63;;;1.98;;
66429;SDS011;53242;51.694;10.006;2023-09-19T05:24:02;5.57;;;2.55;;
66429;SDS011;53242;51.694;10.006;2023-09-19T05:26:25;7.38;;;2.40;;
66429;SDS011;53242;51.694;10.006;2023-09-19T05:28:47;6.43;;;2.17;;
66429;SDS011;53242;51.694;10.006;2023-09-19T05:31:12;5.40;;;2.30;;
66429;SDS011;53242;51.694;10.006;2023-09-19T05:33:34;5.80;;;2.13;;
66429;SDS011;53242;51.694;10.006;2023-09-19T05:35:57;6.93;;;2.20;;
66429;SDS011;53242;51.694;10.006;2023-09-19T05:38:19;4.88;;;2.10;;
66429;SDS011;53242;51.694;10.006;2023-09-19T05:40:42;6.28;;;2.17;;
66429;SDS011;53242;51.694;10.006;2023-09-19T05:43:04;5.97;;;2.10;;
66429;SDS011;53242;51.694;10.006;2023-09-19T05:45:27;9.95;;;2.83;;
66429;SDS011;53242;51.694;10.006;2023-09-19T05:47:50;7.63;;;2.42;;
66429;SDS011;53242;51.694;10.006;2023-09-19T05:50:17;5.30;;;2.20;;
66429;SDS011;53242;51.694;10.006;2023-09-19T05:52:40;5.93;;;2.25;;
66429;SDS011;53242;51.694;10.006;2023-09-19T05:57:28;7.65;;;2.75;;
66429;SDS011;53242;51.694;10.006;2023-09-19T05:59:52;7.70;;;2.38;;
66429;SDS011;53242;51.694;10.006;2023-09-19T06:02:15;7.57;;;2.60;;
66429;SDS011;53242;51.694;10.006;2023-09-19T06:04:37;6.97;;;2.47;;
66429;SDS011;53242;51.694;10.006;2023-09-19T06:07:02;5.40;;;2.30;;
66429;SDS011;53242;51.694;10.006;2023-09-19T06:09:25;4.32;;;2.13;;
66429;SDS011;53242;51.694;10.006;2023-09-19T06:11:49;7.75;;;2.38;;
66429;SDS011;53242;51.694;10.006;2023-09-19T06:14:13;7.00;;;2.60;;
66429;SDS011;53242;51.694;10.006;2023-09-19T06:16:36;6.00;;;2.30;;
66429;SDS011;53242;51.694;10.006;2023-09-19T06:19:00;6.40;;;2.40;;
66429;SDS011;53242;51.694;10.006;2023-09-19T06:21:22;8.15;;;2.42;;
66429;SDS011;53242;51.694;10.006;2023-09-19T06:23:46;5.40;;;2.30;;
66429;SDS011;53242;51.694;10.006;2023-09-19T06:26:09;6.15;;;2.15;;
66429;SDS011;53242;51.694;10.006;2023-09-19T06:28:31;6.07;;;2.35;;
66429;SDS011;53242;51.694;10.006;2023-09-19T06:30:55;10.13;;;2.95;;
66429;SDS011;53242;51.694;10.006;2023-09-19T06:33:19;9.90;;;2.50;;
66429;SDS011;53242;51.694;10.006;2023-09-19T06:38:06;5.30;;;2.17;;
66429;SDS011;53242;51.694;10.006;2023-09-19T06:40:29;7.10;;;2.90;;
66429;SDS011;53242;51.694;10.006;2023-09-19T06:42:53;9.23;;;2.75;;
66429;SDS011;53242;51.694;10.006;2023-09-19T06:45:16;7.60;;;2.65;;
66429;SDS011;53242;51.694;10.006;2023-09-19T06:47:41;6.43;;;2.30;;
66429;SDS011;53242;51.694;10.006;2023-09-19T06:50:05;12.40;;;2.90;;
66429;SDS011;53242;51.694;10.006;2023-09-19T06:52:31;6.78;;;2.10;;
66429;SDS011;53242;51.694;10.006;2023-09-19T06:54:55;5.47;;;2.10;;
66429;SDS011;53242;51.694;10.006;2023-09-19T06:57:17;4.88;;;1.75;;
66429;SDS011;53242;51.694;10.006;2023-09-19T06:59:39;6.93;;;2.22;;
66429;SDS011;53242;51.694;10.006;2023-09-19T07:02:02;9.40;;;2.63;;
66429;SDS011;53242;51.694;10.006;2023-09-19T07:04:25;6.05;;;2.40;;
66429;SDS011;53242;51.694;10.006;2023-09-19T07:06:50;5.15;;;2.13;;
66429;SDS011;53242;51.694;10.006;2023-09-19T07:09:13;7.13;;;2.05;;
66429;SDS011;53242;51.694;10.006;2023-09-19T07:11:35;6.10;;;1.77;;
66429;SDS011;53242;51.694;10.006;2023-09-19T07:13:59;7.18;;;2.05;;
66429;SDS011;53242;51.694;10.006;2023-09-19T07:16:21;6.97;;;2.10;;
66429;SDS011;53242;51.694;10.006;2023-09-19T07:18:51;7.07;;;2.28;;
66429;SDS011;53242;51.694;10.006;2023-09-19T07:21:13;4.82;;;2.30;;
66429;SDS011;53242;51.694;10.006;2023-09-19T07:23:37;6.00;;;2.40;;
66429;SDS011;53242;51.694;10.006;2023-09-19T07:26:03;7.78;;;2.42;;
66429;SDS011;53242;51.694;10.006;2023-09-19T07:28:27;7.18;;;2.10;;
66429;SDS011;53242;51.694;10.006;2023-09-19T07:30:50;8.05;;;2.40;;
66429;SDS011;53242;51.694;10.006;2023-09-19T07:33:12;6.03;;;2.13;;
66429;SDS011;53242;51.694;10.006;2023-09-19T07:35:35;8.60;;;2.13;;
66429;SDS011;53242;51.694;10.006;2023-09-19T07:37:57;5.93;;;2.25;;
66429;SDS011;53242;51.694;10.006;2023-09-19T07:40:20;7.40;;;2.53;;
66429;SDS011;53242;51.694;10.006;2023-09-19T07:42:42;4.43;;;1.77;;
66429;SDS011;53242;51.694;10.006;2023-09-19T07:45:06;7.35;;;1.65;;
66429;SDS011;53242;51.694;10.006;2023-09-19T07:47:30;5.55;;;1.60;;
66429;SDS011;53242;51.694;10.006;2023-09-19T07:49:54;7.38;;;1.40;;
66429;SDS011;53242;51.694;10.006;2023-09-19T07:52:17;5.28;;;1.88;;
66429;SDS011;53242;51.694;10.006;2023-09-19T07:54:41;7.97;;;1.83;;
66429;SDS011;53242;51.694;10.006;2023-09-19T07:57:06;6.25;;;1.60;;
66429;SDS011;53242;51.694;10.006;2023-09-19T07:59:28;6.93;;;1.70;;
66429;SDS011;53242;51.694;10.006;2023-09-19T08:01:51;6.60;;;1.90;;
66429;SDS011;53242;51.694;10.006;2023-09-19T08:04:14;5.60;;;1.55;;
66429;SDS011;53242;51.694;10.006;2023-09-19T08:06:36;4.25;;;1.80;;
66429;SDS011;53242;51.694;10.006;2023-09-19T08:09:01;4.18;;;1.90;;
66429;SDS011;53242;51.694;10.006;2023-09-19T08:11:29;6.03;;;1.92;;
66429;SDS011;53242;51.694;10.006;2023-09-19T08:13:53;5.53;;;1.73;;
66429;SDS011;53242;51.694;10.006;2023-09-19T08:16:15;6.95;;;2.00;;
66429;SDS011;53242;51.694;10.006;2023-09-19T08:18:39;7.43;;;2.00;;
66429;SDS011;53242;51.694;10.006;2023-09-19T08:21:03;7.35;;;1.67;;
66429;SDS011;53242;51.694;10.006;2023-09-19T08:23:25;7.32;;;1.77;;
66429;SDS011;53242;51.694;10.006;2023-09-19T08:25:48;6.75;;;1.80;;
66429;SDS011;53242;51.694;10.006;2023-09-19T08:28:10;6.25;;;1.80;;
66429;SDS011;53242;51.694;10.006;2023-09-19T08:30:34;7.60;;;2.10;;
66429;SDS011;53242;51.694;10.006;2023-09-19T08:32:57;4.85;;;1.80;;
66429;SDS011;53242;51.694;10.006;2023-09-19T08:35:20;7.57;;;2.17;;
66429;SDS011;53242;51.694;10.006;2023-09-19T08:37:43;7.05;;;1.80;;
66429;SDS011;53242;51.694;10.006;2023-09-19T08:40:07;7.07;;;1.50;;
66429;SDS011;53242;51.694;10.006;2023-09-19T08:42:31;4.93;;;1.70;;
66429;SDS011;53242;51.694;10.006;2023-09-19T08:44:54;6.28;;;1.95;;
66429;SDS011;53242;51.694;10.006;2023-09-19T08:47:18;3.45;;;1.98;;
66429;SDS011;53242;51.694;10.006;2023-09-19T08:50:09;7.93;;;2.00;;
66429;SDS011;53242;51.694;10.006;2023-09-19T08:52:37;6.88;;;1.92;;
66429;SDS011;53242;51.694;10.006;2023-09-19T08:55:04;4.65;;;1.80;;
66429;SDS011;53242;51.694;10.006;2023-09-19T08:57:30;3.53;;;1.60;;
66429;SDS011;53242;51.694;10.006;2023-09-19T08:59:57;6.38;;;2.20;;
66429;SDS011;53242;51.694;10.006;2023-09-19T09:02:20;5.50;;;1.85;;
66429;SDS011;53242;51.694;10.006;2023-09-19T09:04:45;7.35;;;2.03;;
66429;SDS011;53242;51.694;10.006;2023-09-19T09:07:12;5.43;;;1.90;;
66429;SDS011;53242;51.694;10.006;2023-09-19T09:09:36;9.57;;;1.90;;
66429;SDS011;53242;51.694;10.006;2023-09-19T09:11:58;7.00;;;2.05;;
66429;SDS011;53242;51.694;10.006;2023-09-19T09:14:21;5.20;;;1.80;;
66429;SDS011;53242;51.694;10.006;2023-09-19T09:16:45;7.32;;;2.10;;
66429;SDS011;53242;51.694;10.006;2023-09-19T09:19:07;7.15;;;1.70;;
66429;SDS011;53242;51.694;10.006;2023-09-19T09:21:30;4.95;;;1.95;;
66429;SDS011;53242;51.694;10.006;2023-09-19T09:23:57;5.97;;;1.75;;
66429;SDS011;53242;51.694;10.006;2023-09-19T09:29:00;8.27;;;1.75;;
66429;SDS011;53242;51.694;10.006;2023-09-19T09:31:23;7.47;;;1.75;;
66429;SDS011;53242;51.694;10.006;2023-09-19T09:33:52;7.18;;;2.17;;
66429;SDS011;53242;51.694;10.006;2023-09-19T09:36:18;8.32;;;1.90;;
66429;SDS011;53242;51.694;10.006;2023-09-19T09:38:56;7.40;;;1.80;;
66429;SDS011;53242;51.694;10.006;2023-09-19T09:41:19;5.65;;;1.50;;
66429;SDS011;53242;51.694;10.006;2023-09-19T09:43:49;7.45;;;2.10;;
66429;SDS011;53242;51.694;10.006;2023-09-19T09:46:16;8.02;;;1.70;;
66429;SDS011;53242;51.694;10.006;2023-09-19T09:48:45;7.60;;;2.55;;
66429;SDS011;53242;51.694;10.006;2023-09-19T09:53:40;5.75;;;1.60;;
66429;SDS011;53242;51.694;10.006;2023-09-19T09:56:06;5.65;;;1.42;;
66429;SDS011;53242;51.694;10.006;2023-09-19T09:58:52;6.10;;;1.50;;
66429;SDS011;53242;51.694;10.006;2023-09-19T10:01:18;6.78;;;1.73;;
66429;SDS011;53242;51.694;10.006;2023-09-19T10:03:40;8.30;;;1.73;;
66429;SDS011;53242;51.694;10.006;2023-09-19T10:06:11;6.20;;;1.60;;
66429;SDS011;53242;51.694;10.006;2023-09-19T10:08:57;7.20;;;1.85;;
66429;SDS011;53242;51.694;10.006;2023-09-19T10:11:32;4.82;;;1.45;;
66429;SDS011;53242;51.694;10.006;2023-09-19T10:14:00;4.63;;;1.58;;
66429;SDS011;53242;51.694;10.006;2023-09-19T10:16:24;4.75;;;1.20;;
66429;SDS011;53242;51.694;10.006;2023-09-19T10:18:47;7.47;;;1.50;;
66429;SDS011;53242;51.694;10.006;2023-09-19T10:21:16;4.30;;;1.50;;
66429;SDS011;53242;51.694;10.006;2023-09-19T10:23:44;4.35;;;1.40;;
66429;SDS011;53242;51.694;10.006;2023-09-19T10:26:07;6.95;;;1.50;;
66429;SDS011;53242;51.694;10.006;2023-09-19T10:28:31;4.45;;;1.30;;
66429;SDS011;53242;51.694;10.006;2023-09-19T10:30:54;8.23;;;1.50;;
66429;SDS011;53242;51.694;10.006;2023-09-19T10:35:45;7.45;;;1.35;;
66429;SDS011;53242;51.694;10.006;2023-09-19T10:40:35;8.40;;;1.77;;
66429;SDS011;53242;51.694;10.006;2023-09-19T10:43:03;4.38;;;1.65;;
66429;SDS011;53242;51.694;10.006;2023-09-19T10:45:30;8.93;;;1.55;;
66429;SDS011;53242;51.694;10.006;2023-09-19T10:47:57;6.72;;;1.77;;
66429;SDS011;53242;51.694;10.006;2023-09-19T10:50:20;5.13;;;1.55;;
66429;SDS011;53242;51.694;10.006;2023-09-19T10:52:46;6.13;;;1.40;;
66429;SDS011;53242;51.694;10.006;2023-09-19T10:55:08;6.85;;;1.60;;
66429;SDS011;53242;51.694;10.006;2023-09-19T10:57:40;5.70;;;1.58;;
66429;SDS011;53242;51.694;10.006;2023-09-19T11:00:07;5.68;;;1.30;;
66429;SDS011;53242;51.694;10.006;2023-09-19T11:05:32;6.53;;;1.40;;
66429;SDS011;53242;51.694;10.006;2023-09-19T11:07:58;5.18;;;1.50;;
66429;SDS011;53242;51.694;10.006;2023-09-19T11:13:27;4.18;;;1.15;;
66429;SDS011;53242;51.694;10.006;2023-09-19T11:21:51;7.65;;;2.00;;
66429;SDS011;53242;51.694;10.006;2023-09-19T11:26:43;6.15;;;1.05;;
66429;SDS011;53242;51.694;10.006;2023-09-19T11:29:26;8.38;;;1.52;;
66429;SDS011;53242;51.694;10.006;2023-09-19T11:31:51;3.90;;;1.20;;
66429;SDS011;53242;51.694;10.006;2023-09-19T11:39:35;5.05;;;1.30;;
66429;SDS011;53242;51.694;10.006;2023-09-19T11:42:00;7.38;;;1.55;;
66429;SDS011;53242;51.694;10.006;2023-09-19T11:49:14;5.00;;;1.45;;
66429;SDS011;53242;51.694;10.006;2023-09-19T11:51:43;8.60;;;1.52;;
66429;SDS011;53242;51.694;10.006;2023-09-19T11:54:10;5.90;;;1.35;;
66429;SDS011;53242;51.694;10.006;2023-09-19T11:56:54;5.10;;;1.48;;
66429;SDS011;53242;51.694;10.006;2023-09-19T11:59:23;9.88;;;1.38;;
66429;SDS011;53242;51.694;10.006;2023-09-19T12:01:51;8.43;;;1.45;;
66429;SDS011;53242;51.694;10.006;2023-09-19T12:04:21;5.43;;;1.00;;
66429;SDS011;53242;51.694;10.006;2023-09-19T12:06:56;6.40;;;1.40;;
66429;SDS011;53242;51.694;10.006;2023-09-19T12:09:19;6.55;;;1.60;;
66429;SDS011;53242;51.694;10.006;2023-09-19T12:11:42;7.03;;;1.52;;
66429;SDS011;53242;51.694;10.006;2023-09-19T12:14:08;6.50;;;1.40;;
66429;SDS011;53242;51.694;10.006;2023-09-19T12:16:30;5.15;;;1.40;;
66429;SDS011;53242;51.694;10.006;2023-09-19T12:18:53;4.93;;;1.45;;
66429;SDS011;53242;51.694;10.006;2023-09-19T12:24:26;5.15;;;1.40;;
66429;SDS011;53242;51.694;10.006;2023-09-19T12:26:42;7.32;;;1.40;;
66429;SDS011;53242;51.694;10.006;2023-09-19T12:29:17;5.40;;;1.50;;
66429;SDS011;53242;51.694;10.006;2023-09-19T12:31:47;5.72;;;1.27;;
66429;SDS011;53242;51.694;10.006;2023-09-19T12:34:15;6.20;;;1.73;;
66429;SDS011;53242;51.694;10.006;2023-09-19T12:36:39;7.97;;;1.48;;
66429;SDS011;53242;51.694;10.006;2023-09-19T12:39:02;5.97;;;1.38;;
66429;SDS011;53242;51.694;10.006;2023-09-19T12:41:30;7.15;;;1.45;;
66429;SDS011;53242;51.694;10.006;2023-09-19T12:43:53;4.07;;;1.50;;
66429;SDS011;53242;51.694;10.006;2023-09-19T12:46:19;14.10;;;1.80;;
66429;SDS011;53242;51.694;10.006;2023-09-19T12:48:43;7.72;;;1.98;;
66429;SDS011;53242;51.694;10.006;2023-09-19T12:51:08;8.95;;;1.60;;
66429;SDS011;53242;51.694;10.006;2023-09-19T12:53:42;5.15;;;1.40;;
66429;SDS011;53242;51.694;10.006;2023-09-19T12:56:06;5.63;;;1.42;;
66429;SDS011;53242;51.694;10.006;2023-09-19T13:00:53;7.25;;;1.45;;
66429;SDS011;53242;51.694;10.006;2023-09-19T13:05:58;4.07;;;1.48;;
66429;SDS011;53242;51.694;10.006;2023-09-19T13:08:35;5.63;;;1.20;;
66429;SDS011;53242;51.694;10.006;2023-09-19T13:11:12;6.32;;;1.30;;
66429;SDS011;53242;51.694;10.006;2023-09-19T13:13:36;4.15;;;1.10;;
66429;SDS011;53242;51.694;10.006;2023-09-19T13:16:01;5.28;;;1.40;;
66429;SDS011;53242;51.694;10.006;2023-09-19T13:18:24;5.35;;;1.60;;
66429;SDS011;53242;51.694;10.006;2023-09-19T13:23:37;5.10;;;1.50;;
66429;SDS011;53242;51.694;10.006;2023-09-19T13:25:59;6.82;;;1.50;;
66429;SDS011;53242;51.694;10.006;2023-09-19T13:28:22;4.43;;;1.30;;
66429;SDS011;53242;51.694;10.006;2023-09-19T13:30:44;7.10;;;1.30;;
66429;SDS011;53242;51.694;10.006;2023-09-19T13:33:09;5.95;;;1.40;;
66429;SDS011;53242;51.694;10.006;2023-09-19T13:35:33;6.40;;;1.50;;
66429;SDS011;53242;51.694;10.006;2023-09-19T13:37:55;8.85;;;1.50;;
66429;SDS011;53242;51.694;10.006;2023-09-19T13:40:17;5.32;;;1.40;;
66429;SDS011;53242;51.694;10.006;2023-09-19T13:42:40;6.18;;;1.35;;
66429;SDS011;53242;51.694;10.006;2023-09-19T13:45:04;9.32;;;1.70;;
66429;SDS011;53242;51.694;10.006;2023-09-19T13:47:27;5.15;;;1.40;;
66429;SDS011;53242;51.694;10.006;2023-09-19T13:49:50;5.30;;;1.40;;
66429;SDS011;53242;51.694;10.006;2023-09-19T13:54:37;3.37;;;1.30;;
66429;SDS011;53242;51.694;10.006;2023-09-19T13:56:59;3.03;;;1.10;;
66429;SDS011;53242;51.694;10.006;2023-09-19T13:59:23;4.03;;;1.42;;
66429;SDS011;53242;51.694;10.006;2023-09-19T14:01:46;3.28;;;1.20;;
66429;SDS011;53242;51.694;10.006;2023-09-19T14:04:08;6.07;;;1.80;;
66429;SDS011;53242;51.694;10.006;2023-09-19T14:06:31;3.88;;;1.30;;
66429;SDS011;53242;51.694;10.006;2023-09-19T14:08:55;4.55;;;1.50;;
66429;SDS011;53242;51.694;10.006;2023-09-19T14:11:17;5.50;;;1.35;;
66429;SDS011;53242;51.694;10.006;2023-09-19T14:13:40;6.82;;;1.60;;
66429;SDS011;53242;51.694;10.006;2023-09-19T14:16:05;5.32;;;1.30;;
66429;SDS011;53242;51.694;10.006;2023-09-19T14:18:31;7.47;;;1.25;;
66429;SDS011;53242;51.694;10.006;2023-09-19T14:20:53;6.95;;;1.10;;
66429;SDS011;53242;51.694;10.006;2023-09-19T14:23:16;3.83;;;1.08;;
66429;SDS011;53242;51.694;10.006;2023-09-19T14:25:38;6.40;;;1.38;;
66429;SDS011;53242;51.694;10.006;2023-09-19T14:28:01;3.03;;;0.98;;
66429;SDS011;53242;51.694;10.006;2023-09-19T14:30:23;7.35;;;1.60;;
66429;SDS011;53242;51.694;10.006;2023-09-19T14:32:46;4.32;;;1.20;;
66429;SDS011;53242;51.694;10.006;2023-09-19T14:35:08;4.47;;;0.93;;
66429;SDS011;53242;51.694;10.006;2023-09-19T14:37:32;4.28;;;1.23;;
66429;SDS011;53242;51.694;10.006;2023-09-19T14:39:54;5.50;;;1.50;;
66429;SDS011;53242;51.694;10.006;2023-09-19T14:42:17;3.70;;;0.88;;
66429;SDS011;53242;51.694;10.006;2023-09-19T14:44:40;4.90;;;1.02;;
66429;SDS011;53242;51.694;10.006;2023-09-19T14:47:03;5.35;;;1.05;;
66429;SDS011;53242;51.694;10.006;2023-09-19T14:49:27;5.95;;;1.17;;
66429;SDS011;53242;51.694;10.006;2023-09-19T14:51:49;10.43;;;1.67;;
66429;SDS011;53242;51.694;10.006;2023-09-19T14:54:14;2.67;;;0.80;;
66429;SDS011;53242;51.694;10.006;2023-09-19T14:56:40;4.65;;;1.00;;
66429;SDS011;53242;51.694;10.006;2023-09-19T14:59:03;4.45;;;1.08;;
66429;SDS011;53242;51.694;10.006;2023-09-19T15:01:26;5.78;;;1.33;;
66429;SDS011;53242;51.694;10.006;2023-09-19T15:03:48;6.43;;;1.40;;
66429;SDS011;53242;51.694;10.006;2023-09-19T15:06:12;5.18;;;1.08;;
66429;SDS011;53242;51.694;10.006;2023-09-19T15:08:38;3.33;;;0.90;;
66429;SDS011;53242;51.694;10.006;2023-09-19T15:11:02;2.63;;;1.15;;
66429;SDS011;53242;51.694;10.006;2023-09-19T15:13:27;5.75;;;1.10;;
66429;SDS011;53242;51.694;10.006;2023-09-19T15:15:51;5.43;;;1.17;;
66429;SDS011;53242;51.694;10.006;2023-09-19T15:18:14;3.72;;;1.23;;
66429;SDS011;53242;51.694;10.006;2023-09-19T15:20:36;4.60;;;1.70;;
66429;SDS011;53242;51.694;10.006;2023-09-19T15:23:05;3.20;;;0.90;;